RLSO2: Arkansas River, Ralston, OK

                                SHEF ID:       RLSO2     Arkansas River at Ralston, OK
STATION TYPE:
Regulating: Stage = 16.00, Flow = 78729

PRECIP STAGE STAGE(2) RIV-FLOW AIR-TEMP BAT-LOAD
in ft ft cfs F volt
Ccp-Rev Ccp-Rev Ccp-Rev Ccp-Rev Ccp-Rev Ccp-Rev
(America/Chicago)
04/28 00:00 0.00 5.43 5.44 3891 64.40 12.72
04/28 01:00 0.00 5.40 5.41 3812 61.70 12.70
04/28 02:00 0.00 5.38 5.38 3760 59.90 12.68
04/28 03:00 0.00 5.35 5.36 3682 58.28 12.65
04/28 04:00 0.00 5.33 5.35 3631 57.38 12.64
04/28 05:00 0.00 5.31 5.32 3581 57.02 12.63
04/28 06:00 0.00 5.30 5.32 3556 56.30 12.61
04/28 07:00 0.00 5.28 5.30 3506 55.58 12.60
04/28 08:00 0.00 5.25 5.26 3431 55.94 12.60
04/28 09:00 0.00 5.25 5.21 3431 56.66 12.66
04/28 10:00 0.00 5.16 5.20 3188 57.56 12.81
04/28 11:00 0.00 5.18 5.22 3241 59.00 13.01
04/28 12:00 0.00 5.19 5.20 3268 59.00 13.09
04/28 13:00 0.00 5.17 5.19 3214 60.80 13.09
04/28 14:00 0.00 5.16 5.19 3188 62.78 13.15
04/28 15:00 0.00 5.15 5.14 3161 63.14 13.09
04/28 16:00 0.00 5.08 5.17 2980 65.48 13.07
04/28 17:00 0.00 5.14 5.16 3135 67.64 13.05
04/28 18:00 0.00 5.12 5.15 3083 68.90 13.03
04/28 19:00 0.00 5.11 5.13 3057 66.92 12.96
04/28 20:00 0.00 5.11 5.13 3057 63.32 12.89
04/28 21:00 0.00 5.09 5.12 3005 60.08 12.80
04/28 22:00 0.00 5.09 5.12 3005 57.74 12.77
04/28 23:00 0.00 5.09 5.12 3005 57.02 12.74
Data processed at Wed 29Apr2026 04:21 GMT

NOTICE: If you are parsing this page

Please convert to using our Data API. Starting early 2026 we will be migrating to: https://water.usace.army.mil with modern pages rendered in JavaScript. When this migration completes you will no longer be able to scrape this page! CWMSDataAPI (CDA)

Timeseries IDs (TSIDs)

TSIDs used from left to right in the data table
RALS.Precip-Inc.Total.1Hour.1Hour.Ccp-Rev
RALS.Stage.Inst.1Hour.0.Ccp-Rev
RALS.Stage-Alt.Inst.1Hour.0.Ccp-Rev
RALS.Flow.Inst.1Hour.0.Ccp-Rev
RALS.Temp-Air.Inst.1Hour.0.Ccp-Rev
RALS.Volt-Battery Load.Inst.1Hour.0.Ccp-Rev

                            

All information presented herein is the property of the government of the United States of America and may be revised or deleted at any time without prior notice. Dissemination of this information without the expressed written consent of the Public Affairs Office, Tulsa District U.S. Army Corps of Engineers is strictly prohibited. These data are gathered electronically and, as presented, have NOT undergone any form of quality control. These data are NOT guaranteed to be valid or correct.